Time;durP1;ratioP1;P1;durP2;ratioP2;P2;SDS_P1;SDS_P2;PMS_P1;PMS_P2;Temp;Humidity;BMP_temperature;BMP_pressure;BME280_temperature;BME280_humidity;BME280_pressure;Samples;Min_cycle;Max_cycle;Signal;HPM_P1;HPM_P2
2021/05/03 00:00:21;;;;;;;1999.90;999.90;;;5.20;99.90;;;;;;5078678;28;20205;-80
2021/05/03 00:02:47;;;;;;;1999.90;999.90;;;5.10;99.90;;;;;;5078732;28;20167;-80
2021/05/03 00:05:25;;;;;;;1999.90;999.90;;;5.10;99.90;;;;;;5078865;28;20168;-80
2021/05/03 00:07:51;;;;;;;1999.90;999.90;;;5.20;99.90;;;;;;5079169;28;20184;-80
2021/05/03 00:10:18;;;;;;;1999.90;999.90;;;5.20;99.90;;;;;;5078819;28;20639;-80
2021/05/03 00:12:44;;;;;;;1999.90;999.90;;;5.20;99.90;;;;;;5079154;28;20187;-80
2021/05/03 00:15:12;;;;;;;1999.90;999.90;;;5.30;99.90;;;;;;5078885;28;20202;-80
2021/05/03 00:17:38;;;;;;;1999.90;999.90;;;5.30;99.90;;;;;;5078101;28;20184;-80
2021/05/03 00:20:05;;;;;;;1999.90;999.90;;;5.20;99.90;;;;;;5079533;28;20670;-80
2021/05/03 00:22:31;;;;;;;1999.90;999.90;;;5.30;99.90;;;;;;5079475;28;20245;-79
2021/05/03 00:24:57;;;;;;;1999.90;999.90;;;5.20;99.90;;;;;;5061609;28;20260;-80
2021/05/03 00:27:23;;;;;;;1999.90;999.90;;;5.20;99.90;;;;;;5060954;28;20430;-80
2021/05/03 00:29:49;;;;;;;1999.90;999.90;;;5.20;99.90;;;;;;5061323;28;20168;-80
2021/05/03 00:32:14;;;;;;;1999.90;999.90;;;5.10;99.90;;;;;;5078883;28;20402;-80
2021/05/03 00:34:40;;;;;;;1999.90;999.90;;;5.10;99.90;;;;;;5078901;28;20168;-80
2021/05/03 00:37:06;;;;;;;1999.90;999.90;;;5.10;99.90;;;;;;5078931;28;20262;-80
2021/05/03 00:39:31;;;;;;;1999.90;999.90;;;5.10;99.90;;;;;;5079284;28;20187;-80
2021/05/03 00:41:57;;;;;;;1999.90;999.90;;;5.20;99.90;;;;;;5078827;28;20168;-80
2021/05/03 00:44:25;;;;;;;1999.90;999.90;;;5.20;99.90;;;;;;5078939;28;20164;-79
2021/05/03 00:46:52;;;;;;;1999.90;999.90;;;5.20;99.90;;;;;;5079336;28;20649;-80
2021/05/03 00:49:18;;;;;;;1999.90;999.90;;;5.20;99.90;;;;;;5080105;28;20210;-80
2021/05/03 00:51:43;;;;;;;1999.90;999.90;;;5.20;99.90;;;;;;5079196;28;20172;-80
2021/05/03 00:54:09;;;;;;;1999.90;999.90;;;5.10;99.90;;;;;;5078973;28;20163;-80
2021/05/03 00:56:35;;;;;;;1999.90;999.90;;;5.10;99.90;;;;;;5078895;28;20164;-80
2021/05/03 00:59:00;;;;;;;1999.90;999.90;;;5.00;99.90;;;;;;5078660;28;20229;-80
2021/05/03 01:01:26;;;;;;;1999.90;999.90;;;5.00;99.90;;;;;;5078888;28;20217;-80
2021/05/03 01:03:52;;;;;;;1999.90;999.90;;;5.00;99.90;;;;;;5080055;28;20167;-80
2021/05/03 01:06:18;;;;;;;1999.90;999.90;;;5.00;99.90;;;;;;5065452;28;20182;-80
2021/05/03 01:08:45;;;;;;;1999.90;999.90;;;5.00;99.90;;;;;;5064711;28;20188;-79
2021/05/03 01:11:11;;;;;;;1999.90;999.90;;;5.00;99.90;;;;;;5082833;28;20198;-80
2021/05/03 01:13:36;;;;;;;1999.90;999.90;;;5.00;99.90;;;;;;5064725;28;20183;-80
2021/05/03 01:16:02;;;;;;;1999.90;999.90;;;4.80;99.90;;;;;;5082543;28;20172;-80
2021/05/03 01:18:29;;;;;;;1999.90;999.90;;;4.80;99.90;;;;;;5082964;28;20183;-79
2021/05/03 01:20:56;;;;;;;1999.90;999.90;;;4.80;99.90;;;;;;5064468;28;20187;-80
2021/05/03 01:23:22;;;;;;;1999.90;999.90;;;4.70;99.90;;;;;;5082710;28;20185;-80
2021/05/03 01:25:49;;;;;;;1999.90;999.90;;;4.60;99.90;;;;;;5082956;28;20167;-80
2021/05/03 01:28:15;;;;;;;1999.90;999.90;;;4.50;99.90;;;;;;5064130;28;20279;-80
2021/05/03 01:30:43;;;;;;;1999.90;999.90;;;4.50;99.90;;;;;;5082577;28;20191;-79
2021/05/03 01:33:11;;;;;;;1999.90;999.90;;;4.50;99.90;;;;;;5082690;28;20862;-80
2021/05/03 01:35:38;;;;;;;1999.90;999.90;;;4.50;99.90;;;;;;5064206;28;20172;-80
2021/05/03 01:38:06;;;;;;;1999.90;999.90;;;4.40;99.90;;;;;;5082207;28;20258;-80
2021/05/03 01:40:35;;;;;;;1999.90;999.90;;;4.40;99.90;;;;;;5083129;28;20198;-79
2021/05/03 01:43:33;;;;;;;1999.90;999.90;;;4.40;99.90;;;;;;5081855;28;20184;-80
2021/05/03 01:46:00;;;;;;;1999.90;999.90;;;4.40;99.90;;;;;;5038565;28;20204;-80
2021/05/03 01:48:29;;;;;;;1999.90;999.90;;;4.30;99.90;;;;;;5063590;28;20188;-80
2021/05/03 01:50:57;;;;;;;1999.90;999.90;;;4.30;99.90;;;;;;5081732;28;20175;-80
2021/05/03 01:53:24;;;;;;;1999.90;999.90;;;4.30;99.90;;;;;;5081555;28;20252;-80
2021/05/03 01:55:56;;;;;;;1999.90;999.90;;;4.30;99.90;;;;;;5081695;28;20164;-80
2021/05/03 01:58:23;;;;;;;1999.90;999.90;;;4.20;99.90;;;;;;5082069;28;20238;-80
2021/05/03 02:00:49;;;;;;;1999.90;999.90;;;4.20;99.90;;;;;;5063408;28;20199;-80
2021/05/03 02:03:26;;;;;;;1999.90;999.90;;;4.20;99.90;;;;;;5064619;28;20662;-80
2021/05/03 02:05:53;;;;;;;1999.90;999.90;;;4.10;99.90;;;;;;5082674;28;20155;-80
2021/05/03 02:08:19;;;;;;;1999.90;999.90;;;4.20;99.90;;;;;;5063962;28;20188;-80
2021/05/03 02:10:46;;;;;;;1999.90;999.90;;;4.20;99.90;;;;;;5063983;28;20655;-80
2021/05/03 02:13:12;;;;;;;1999.90;999.90;;;4.20;99.90;;;;;;5064180;28;20643;-80
2021/05/03 02:15:38;;;;;;;1999.90;999.90;;;4.10;99.90;;;;;;5080659;28;20164;-80
2021/05/03 02:18:05;;;;;;;1999.90;999.90;;;4.10;99.90;;;;;;5081895;28;20204;-80
2021/05/03 02:20:32;;;;;;;1999.90;999.90;;;4.00;99.90;;;;;;5081540;28;20196;-80
2021/05/03 02:22:58;;;;;;;1999.90;999.90;;;4.00;99.90;;;;;;5081247;28;20163;-80
2021/05/03 02:25:24;;;;;;;1999.90;999.90;;;4.00;99.90;;;;;;5081085;28;20164;-80
2021/05/03 02:27:50;;;;;;;1999.90;999.90;;;4.00;99.90;;;;;;5080093;28;20183;-80
2021/05/03 02:30:16;;;;;;;1999.90;999.90;;;3.90;99.90;;;;;;5080775;28;20167;-80
2021/05/03 02:32:44;;;;;;;1999.90;999.90;;;3.90;99.90;;;;;;5080877;28;20624;-80
2021/05/03 02:35:16;;;;;;;1999.90;999.90;;;3.80;99.90;;;;;;5081032;28;20209;-80
2021/05/03 02:37:46;;;;;;;1999.90;999.90;;;3.80;99.90;;;;;;5062858;28;20222;-80
2021/05/03 02:40:12;;;;;;;1999.90;999.90;;;3.80;99.90;;;;;;5062580;28;20569;-80
2021/05/03 02:42:38;;;;;;;1999.90;999.90;;;3.70;99.90;;;;;;5080865;28;20163;-80
2021/05/03 02:45:07;;;;;;;1999.90;999.90;;;3.60;99.90;;;;;;5080541;28;20160;-80
2021/05/03 02:47:33;;;;;;;1999.90;999.90;;;3.60;99.90;;;;;;5080387;28;20601;-80
2021/05/03 02:49:58;;;;;;;1999.90;999.90;;;3.60;99.90;;;;;;5080552;28;20163;-80
2021/05/03 02:52:24;;;;;;;1999.90;999.90;;;3.60;99.90;;;;;;5080003;28;20190;-80
2021/05/03 02:54:51;;;;;;;1999.90;999.90;;;3.70;99.90;;;;;;5062073;28;20217;-80
2021/05/03 02:57:16;;;;;;;1999.90;999.90;;;3.70;99.90;;;;;;5080441;28;20452;-80
2021/05/03 02:59:42;;;;;;;1999.90;999.90;;;3.80;99.90;;;;;;5080145;28;20547;-80
2021/05/03 03:02:08;;;;;;;1999.90;999.90;;;3.80;99.90;;;;;;5080023;28;20685;-80
2021/05/03 03:04:33;;;;;;;1999.90;999.90;;;3.70;99.90;;;;;;5061766;28;20164;-80
2021/05/03 03:06:59;;;;;;;1999.90;999.90;;;3.70;99.90;;;;;;5079995;28;20421;-80
2021/05/03 03:09:25;;;;;;;1999.90;999.90;;;3.80;99.90;;;;;;5079895;28;20194;-80
2021/05/03 03:11:50;;;;;;;1999.90;999.90;;;3.90;99.90;;;;;;5079602;28;20174;-80
2021/05/03 03:14:16;;;;;;;1999.90;999.90;;;3.90;99.90;;;;;;5081451;28;20183;-80
2021/05/03 03:16:42;;;;;;;1999.90;999.90;;;3.80;99.90;;;;;;5083355;28;20171;-80
2021/05/03 03:19:08;;;;;;;1999.90;999.90;;;3.80;99.90;;;;;;5080725;28;20191;-80
2021/05/03 03:21:34;;;;;;;1999.90;999.90;;;3.80;99.90;;;;;;5080829;28;20164;-80
2021/05/03 03:24:00;;;;;;;1999.90;999.90;;;3.80;99.90;;;;;;5078871;28;20434;-80
2021/05/03 03:26:26;;;;;;;1999.90;999.90;;;3.80;99.90;;;;;;5079051;28;20405;-80
2021/05/03 03:28:52;;;;;;;1999.90;999.90;;;3.70;99.90;;;;;;5078855;28;20263;-80
2021/05/03 03:31:17;;;;;;;1999.90;999.90;;;3.60;99.90;;;;;;5079239;28;20586;-80
2021/05/03 03:33:43;;;;;;;1999.90;999.90;;;3.50;99.90;;;;;;5061606;28;20164;-80
2021/05/03 03:36:09;;;;;;;1999.90;999.90;;;3.40;99.90;;;;;;5061040;28;20402;-80
2021/05/03 03:38:35;;;;;;;1999.90;999.90;;;3.30;99.90;;;;;;5061839;28;20214;-80
2021/05/03 03:41:01;;;;;;;1999.90;999.90;;;3.30;99.90;;;;;;5079569;28;20187;-80
2021/05/03 03:43:27;;;;;;;1999.90;999.90;;;3.20;99.90;;;;;;5079260;28;20413;-80
2021/05/03 03:45:53;;;;;;;1999.90;999.90;;;3.10;99.90;;;;;;5079549;28;20171;-79
2021/05/03 03:48:19;;;;;;;1999.90;999.90;;;3.10;99.90;;;;;;5079388;28;20631;-80
2021/05/03 03:50:44;;;;;;;1999.90;999.90;;;3.10;99.90;;;;;;5079467;28;20180;-80
2021/05/03 03:53:10;;;;;;;1999.90;999.90;;;3.10;99.90;;;;;;5079276;28;20167;-80
2021/05/03 03:55:36;;;;;;;1999.90;999.90;;;3.10;99.90;;;;;;5079129;28;20167;-80
2021/05/03 03:58:02;;;;;;;1999.90;999.90;;;3.00;99.90;;;;;;5078962;28;20547;-80
2021/05/03 04:00:27;;;;;;;1999.90;999.90;;;3.00;99.90;;;;;;5079101;28;20453;-80
2021/05/03 04:02:54;;;;;;;1999.90;999.90;;;2.90;99.90;;;;;;5078815;28;20960;-80
2021/05/03 04:08:08;;;;;;;1999.90;999.90;;;3.00;99.90;;;;;;5079108;28;20655;-80
2021/05/03 04:25:06;;;;;;;;;;;;;;;;;;;;;
2021/05/03 04:27:35;;;;;;;1999.90;999.90;;;2.90;99.90;;;;;;5086432;28;20188;-84
2021/05/03 04:30:27;;;;;;;1999.90;999.90;;;2.90;99.90;;;;;;5087785;28;20600;-84
2021/05/03 04:33:19;;;;;;;1999.90;999.90;;;2.90;99.90;;;;;;5087752;28;20156;-84
2021/05/03 04:35:48;;;;;;;1999.90;999.90;;;2.90;99.90;;;;;;5070096;28;20566;-84
2021/05/03 04:38:41;;;;;;;1999.90;999.90;;;3.00;99.90;;;;;;5069284;28;20195;-84
2021/05/03 04:41:28;;;;;;;1999.90;999.90;;;3.10;99.90;;;;;;5087428;28;20225;-83
2021/05/03 04:47:20;;;;;;;1999.90;999.90;;;3.20;99.90;;;;;;5070976;28;20218;-84
2021/05/03 04:49:51;;;;;;;1999.90;999.90;;;3.40;99.90;;;;;;5088248;28;20147;-84
2021/05/03 04:52:20;;;;;;;1999.90;999.90;;;3.50;99.90;;;;;;5070220;28;20156;-84
2021/05/03 04:54:54;;;;;;;1999.90;999.90;;;3.70;99.90;;;;;;5070105;28;20164;-84
2021/05/03 04:57:23;;;;;;;1999.90;999.90;;;3.80;99.90;;;;;;5069682;28;20187;-84
2021/05/03 04:59:49;;;;;;;1999.90;999.90;;;3.90;99.90;;;;;;5087554;28;20191;-84
2021/05/03 05:02:27;;;;;;;1999.90;999.90;;;4.00;99.90;;;;;;5070432;28;20580;-84
2021/05/03 05:05:01;;;;;;;1999.90;999.90;;;4.20;99.90;;;;;;5069357;28;20170;-84
2021/05/03 05:07:27;;;;;;;1999.90;999.90;;;4.40;99.90;;;;;;5069456;28;20184;-84
2021/05/03 05:10:44;;;;;;;1999.90;999.90;;;4.60;99.90;;;;;;5069181;28;20595;-84
2021/05/03 05:13:29;;;;;;;1999.90;999.90;;;4.80;99.90;;;;;;5060172;28;20184;-84
2021/05/03 05:16:11;;;;;;;1999.90;999.90;;;5.00;99.90;;;;;;5069355;28;20184;-84
2021/05/03 05:19:11;;;;;;;1999.90;999.90;;;5.20;99.90;;;;;;5068350;28;20210;-84
2021/05/03 05:25:42;;;;;;;;;;;;;;;;;;;;;
2021/05/03 05:28:53;;;;;;;1999.90;999.90;;;5.70;99.90;;;;;;4988308;28;20273;-84
2021/05/03 05:31:47;;;;;;;1999.90;999.90;;;5.80;99.90;;;;;;5023258;28;20178;-84
2021/05/03 05:34:27;;;;;;;1999.90;999.90;;;6.00;99.90;;;;;;5043088;28;20177;-83
2021/05/03 05:36:58;;;;;;;1999.90;999.90;;;6.10;99.90;;;;;;5065870;28;20203;-83
2021/05/03 05:39:33;;;;;;;1999.90;999.90;;;6.20;99.90;;;;;;5084412;28;20195;-83
2021/05/03 05:42:11;;;;;;;1999.90;999.90;;;6.30;99.90;;;;;;5065696;28;20163;-83
2021/05/03 05:44:39;;;;;;;1999.90;999.90;;;6.40;99.90;;;;;;5066213;28;20175;-83
2021/05/03 05:47:08;;;;;;;1999.90;999.90;;;6.50;99.90;;;;;;5068234;28;20354;-83
2021/05/03 05:50:02;;;;;;;1999.90;999.90;;;6.60;99.90;;;;;;5085201;28;20187;-83
2021/05/03 06:00:11;;;;;;;1999.90;999.90;;;6.80;99.90;;;;;;5087481;28;20202;-83
2021/05/03 06:03:36;;;;;;;;;;;;;;;;;;;;;
2021/05/03 06:15:55;;;;;;;1999.90;999.90;;;7.20;99.90;;;;;;4954469;29;20522;-83
2021/05/03 06:18:21;;;;;;;1999.90;999.90;;;7.20;99.90;;;;;;4970049;28;20707;-83
2021/05/03 06:21:11;;;;;;;1999.90;999.90;;;7.10;99.90;;;;;;4969277;28;20199;-84
2021/05/03 06:24:20;;;;;;;;;;;;;;;;;;;;;
2021/05/03 06:27:41;;;;;;;1999.90;999.90;;;7.10;99.90;;;;;;5057791;28;20271;-83
2021/05/03 06:31:04;;;;;;;;;;;;;;;;;;;;;
2021/05/03 06:33:33;;;;;;;1999.90;999.90;;;7.20;99.90;;;;;;5086048;28;20251;-84
2021/05/03 06:39:53;;;;;;;1999.90;999.90;;;7.40;99.90;;;;;;4983884;28;20195;-84
2021/05/03 06:50:05;;;;;;;;;;;;;;;;;;;;;
2021/05/03 06:52:54;;;;;;;1999.90;999.90;;;7.50;99.90;;;;;;4944242;29;20236;-84
2021/05/03 07:28:34;;;;;;;1999.90;999.90;;;8.00;98.60;;;;;;1145666;26;20385;-85
2021/05/03 07:43:22;;;;;;;1999.90;999.90;;;8.70;96.50;;;;;;5084277;22;20223;-84
2021/05/03 07:49:49;;;;;;;1999.90;999.90;;;8.80;91.50;;;;;;5267503;22;20232;-84
2021/05/03 07:56:30;;;;;;;1999.90;999.90;;;8.90;87.10;;;;;;5001097;28;20255;-84
2021/05/03 08:02:41;;;;;;;1999.90;999.90;;;9.00;90.80;;;;;;5006595;28;20177;-85
2021/05/03 08:15:30;;;;;;;1999.90;999.90;;;9.40;75.80;;;;;;5006277;28;20201;-85
2021/05/03 08:21:45;;;;;;;1999.90;999.90;;;9.60;63.80;;;;;;5008992;28;20193;-85
2021/05/03 08:27:58;;;;;;;1999.90;999.90;;;9.80;67.60;;;;;;5046965;28;20227;-85
2021/05/03 08:34:32;;;;;;;1999.90;999.90;;;10.00;57.30;;;;;;5047692;28;20181;-84
2021/05/03 08:37:44;;;;;;;1999.90;999.90;;;10.10;55.90;;;;;;5005666;28;20198;-85
2021/05/03 08:41:11;;;;;;;1999.90;999.90;;;10.20;58.00;;;;;;5035719;28;20251;-84
2021/05/03 08:44:26;;;;;;;1999.90;999.90;;;10.40;53.40;;;;;;5043394;28;20256;-84
2021/05/03 08:47:01;;;;;;;1999.90;999.90;;;10.50;29.90;;;;;;5031879;28;20197;-84
2021/05/03 08:50:20;;;;;;;1999.90;999.90;;;10.60;45.40;;;;;;5043226;28;20207;-83
2021/05/03 08:52:58;;;;;;;1999.90;999.90;;;10.70;35.80;;;;;;5007859;28;20181;-84
2021/05/03 08:55:35;;;;;;;1999.90;999.90;;;11.00;29.40;;;;;;5046444;28;20184;-84
2021/05/03 08:58:29;;;;;;;1999.90;999.90;;;11.10;27.90;;;;;;5027890;28;20196;-84
2021/05/03 09:01:36;;;;;;;1999.90;999.90;;;11.30;19.30;;;;;;5045576;28;20204;-85
2021/05/03 09:04:29;;;;;;;1999.90;999.90;;;11.50;17.70;;;;;;5026931;28;20177;-84
2021/05/03 09:10:05;;;;;;;1999.90;999.90;;;11.70;8.80;;;;;;5045859;28;20217;-84
2021/05/03 09:12:37;;;;;;;1999.90;999.90;;;11.80;5.80;;;;;;5045604;28;20243;-85
2021/05/03 09:15:06;;;;;;;1999.90;999.90;;;11.90;10.10;;;;;;5044822;28;20249;-83
2021/05/03 09:21:10;;;;;;;1999.90;999.90;;;12.10;7.30;;;;;;4957359;28;20271;-84
2021/05/03 09:31:37;;;;;;;;;;;;;;;;;;;;;
2021/05/03 09:34:49;;;;;;;1999.90;999.90;;;12.70;8.10;;;;;;4804669;29;20273;-84
2021/05/03 09:37:58;;;;;;;1999.90;999.90;;;12.80;3.30;;;;;;4891067;29;20798;-84
2021/05/03 09:52:07;;;;;;;;;;;;;;;;;;;;;
2021/05/03 09:54:57;;;;;;;1999.90;999.90;;;13.30;1.00;;;;;;4987803;28;20251;-85
2021/05/03 10:01:04;;;;;;;1999.90;999.90;;;13.20;1.00;;;;;;4933082;29;20215;-84
2021/05/03 10:10:49;;;;;;;1999.90;999.90;;;13.30;1.00;;;;;;4916431;29;20186;-84
2021/05/03 10:14:03;;;;;;;1999.90;999.90;;;13.50;1.00;;;;;;4943268;29;20284;-84
2021/05/03 10:16:48;;;;;;;1999.90;999.90;;;13.90;1.00;;;;;;4941715;29;20176;-84
2021/05/03 10:19:56;;;;;;;;;;;;;;;;;;;;;
2021/05/03 10:22:45;;;;;;;1999.90;999.90;;;14.40;1.00;;;;;;4941134;29;20243;-84
2021/05/03 10:25:33;;;;;;;1999.90;999.90;;;14.30;1.00;;;;;;4924376;29;20172;-83
2021/05/03 10:28:11;;;;;;;1999.90;999.90;;;14.10;1.00;;;;;;5004380;28;20276;-83
2021/05/03 10:30:58;;;;;;;1999.90;999.90;;;14.00;1.00;;;;;;5021318;28;20401;-83
2021/05/03 10:34:04;;;;;;;1999.90;999.90;;;13.90;1.00;;;;;;5019862;28;20188;-83
2021/05/03 10:36:38;;;;;;;1999.90;999.90;;;14.00;1.00;;;;;;4998848;28;20182;-82
2021/05/03 10:39:29;;;;;;;1999.90;999.90;;;14.30;1.00;;;;;;5018583;28;20600;-82
2021/05/03 10:42:06;;;;;;;1999.90;999.90;;;14.50;1.00;;;;;;5002015;28;20437;-82
2021/05/03 10:44:58;;;;;;;1999.90;999.90;;;14.40;1.00;;;;;;5020198;28;20408;-83
2021/05/03 10:50:45;;;;;;;1999.90;999.90;;;14.50;1.00;;;;;;5025691;28;20401;-84
2021/05/03 10:53:37;;;;;;;1999.90;999.90;;;14.40;1.00;;;;;;5099777;22;20544;-83
2021/05/03 10:56:11;;;;;;;1999.90;999.90;;;14.40;1.00;;;;;;5057828;28;20387;-84
2021/05/03 10:59:09;;;;;;;1999.90;999.90;;;14.40;1.00;;;;;;5057573;28;20406;-83
2021/05/03 11:02:08;;;;;;;1999.90;999.90;;;14.50;1.00;;;;;;5039925;28;20421;-84
2021/05/03 11:04:36;;;;;;;1999.90;999.90;;;14.60;1.00;;;;;;5004606;28;20176;-83
2021/05/03 11:07:06;;;;;;;1999.90;999.90;;;14.80;1.00;;;;;;5058502;28;20425;-84
2021/05/03 11:09:40;;;;;;;1999.90;999.90;;;15.00;1.00;;;;;;5039539;28;20400;-84
2021/05/03 11:12:06;;;;;;;1999.90;999.90;;;15.10;1.00;;;;;;5058756;28;20372;-84
2021/05/03 11:14:36;;;;;;;1999.90;999.90;;;15.10;1.00;;;;;;5057789;28;20464;-83
2021/05/03 11:17:15;;;;;;;1999.90;999.90;;;15.00;1.00;;;;;;5057390;28;20586;-83
2021/05/03 11:20:13;;;;;;;1999.90;999.90;;;15.00;1.00;;;;;;5057345;28;20514;-83
2021/05/03 11:22:49;;;;;;;1999.90;999.90;;;15.20;1.00;;;;;;5057554;28;20407;-84
2021/05/03 11:25:25;;;;;;;1999.90;999.90;;;15.50;1.00;;;;;;5039569;28;20458;-83
2021/05/03 11:30:58;;;;;;;1999.90;999.90;;;15.70;1.00;;;;;;5034281;28;20717;-84
2021/05/03 11:34:00;;;;;;;1999.90;999.90;;;15.70;1.00;;;;;;5039757;28;20408;-85
2021/05/03 11:36:32;;;;;;;1999.90;999.90;;;15.70;1.00;;;;;;5038473;28;20929;-84
2021/05/03 11:39:54;;;;;;;1999.90;999.90;;;15.50;1.00;;;;;;5056896;28;20763;-84
2021/05/03 11:42:52;;;;;;;1999.90;999.90;;;15.30;1.00;;;;;;5056681;28;20407;-84
2021/05/03 11:45:24;;;;;;;1999.90;999.90;;;15.00;1.00;;;;;;5039660;28;20406;-84
2021/05/03 11:47:53;;;;;;;1999.90;999.90;;;15.00;1.00;;;;;;5057110;28;20460;-83
2021/05/03 11:50:20;;;;;;;1999.90;999.90;;;15.20;1.00;;;;;;5057428;28;20427;-84
2021/05/03 11:52:46;;;;;;;1999.90;999.90;;;15.30;1.00;;;;;;5057686;28;20427;-83
2021/05/03 11:55:15;;;;;;;1999.90;999.90;;;15.40;1.00;;;;;;5057146;28;20402;-84
2021/05/03 11:57:45;;;;;;;1999.90;999.90;;;15.70;1.00;;;;;;5056753;28;20272;-83
2021/05/03 12:00:14;;;;;;;1999.90;999.90;;;15.80;1.00;;;;;;5039027;28;20541;-84
2021/05/03 12:02:39;;;;;;;1999.90;999.90;;;16.20;1.00;;;;;;5056767;28;20898;-84
2021/05/03 12:05:16;;;;;;;1999.90;999.90;;;16.40;1.00;;;;;;5056910;28;20395;-84
2021/05/03 12:07:44;;;;;;;1999.90;999.90;;;16.60;1.00;;;;;;5057148;28;20675;-84
2021/05/03 12:10:18;;;;;;;1999.90;999.90;;;16.50;1.00;;;;;;5039626;28;20415;-83
2021/05/03 12:12:49;;;;;;;1999.90;999.90;;;16.30;1.00;;;;;;5057467;28;20438;-84
2021/05/03 12:15:18;;;;;;;1999.90;999.90;;;16.10;1.00;;;;;;5039196;28;20422;-84
2021/05/03 12:17:45;;;;;;;1999.90;999.90;;;16.10;1.00;;;;;;5057035;28;20913;-84
2021/05/03 12:20:19;;;;;;;1999.90;999.90;;;16.40;1.00;;;;;;5056479;28;20455;-84
2021/05/03 12:22:58;;;;;;;1999.90;999.90;;;16.70;1.00;;;;;;5039614;28;20416;-84
2021/05/03 12:25:26;;;;;;;1999.90;999.90;;;17.20;1.00;;;;;;5056599;28;20413;-84
2021/05/03 12:27:52;;;;;;;1999.90;999.90;;;17.60;1.00;;;;;;5055826;28;20421;-84
2021/05/03 12:30:18;;;;;;;1999.90;999.90;;;17.70;1.00;;;;;;5056126;28;20463;-84
2021/05/03 12:32:44;;;;;;;1999.90;999.90;;;17.40;1.00;;;;;;5038781;28;20422;-84
2021/05/03 12:35:13;;;;;;;1999.90;999.90;;;16.90;1.00;;;;;;5038801;28;20426;-84
2021/05/03 12:37:39;;;;;;;1999.90;999.90;;;16.60;1.00;;;;;;5057377;28;20490;-84
2021/05/03 12:40:09;;;;;;;1999.90;999.90;;;16.40;1.00;;;;;;5056876;28;20470;-84
2021/05/03 12:42:44;;;;;;;1999.90;999.90;;;16.40;1.00;;;;;;5056524;28;20413;-84
2021/05/03 12:45:50;;;;;;;1999.90;999.90;;;16.20;1.00;;;;;;5056855;28;20424;-84
2021/05/03 12:48:25;;;;;;;1999.90;999.90;;;16.20;1.00;;;;;;5058563;28;20414;-84
2021/05/03 12:53:43;;;;;;;1999.90;999.90;;;16.40;1.00;;;;;;5056225;28;20423;-84
2021/05/03 12:56:19;;;;;;;1999.90;999.90;;;16.70;1.00;;;;;;5056622;28;20527;-84
2021/05/03 12:58:59;;;;;;;1999.90;999.90;;;17.10;1.00;;;;;;5056497;28;20423;-84
2021/05/03 13:06:50;;;;;;;1999.90;999.90;;;17.30;1.00;;;;;;5059732;28;20386;-84
2021/05/03 13:29:03;;;;;;;1999.90;999.90;;;16.80;1.00;;;;;;5059352;28;20414;-85
2021/05/03 13:31:30;;;;;;;1999.90;999.90;;;16.10;1.00;;;;;;5058699;28;20376;-84
2021/05/03 13:33:56;;;;;;;1999.90;999.90;;;16.00;1.00;;;;;;5059425;28;20410;-84
2021/05/03 13:36:22;;;;;;;1999.90;999.90;;;15.90;1.00;;;;;;5057764;28;20405;-84
2021/05/03 13:38:49;;;;;;;1999.90;999.90;;;15.70;1.00;;;;;;5058839;28;20477;-84
2021/05/03 13:41:15;;;;;;;1999.90;999.90;;;15.80;1.00;;;;;;5061669;28;20210;-85
2021/05/03 13:43:41;;;;;;;1999.90;999.90;;;15.90;1.00;;;;;;5043064;28;20469;-84
2021/05/03 13:46:06;;;;;;;1999.90;999.90;;;16.20;1.00;;;;;;5042134;28;20420;-83
2021/05/03 13:48:32;;;;;;;1999.90;999.90;;;16.50;1.00;;;;;;5057613;28;20267;-84
2021/05/03 13:50:58;;;;;;;1999.90;999.90;;;16.60;1.00;;;;;;5058086;28;20635;-83
2021/05/03 13:53:23;;;;;;;1999.90;999.90;;;16.70;1.00;;;;;;5039984;28;20190;-83
2021/05/03 13:55:49;;;;;;;1999.90;999.90;;;16.80;1.00;;;;;;5057529;28;20171;-83
2021/05/03 13:58:15;;;;;;;1999.90;999.90;;;16.90;1.00;;;;;;5057725;28;20187;-83
2021/05/03 14:00:40;;;;;;;1999.90;999.90;;;16.90;1.00;;;;;;5057174;28;20193;-84
2021/05/03 14:03:06;;;;;;;1999.90;999.90;;;16.90;1.00;;;;;;5057449;28;20676;-83
2021/05/03 14:05:32;;;;;;;1999.90;999.90;;;16.70;1.00;;;;;;5057505;28;20218;-83
2021/05/03 14:07:57;;;;;;;1999.90;999.90;;;16.60;1.00;;;;;;5056898;28;20625;-83
2021/05/03 14:10:23;;;;;;;1999.90;999.90;;;16.60;1.00;;;;;;5056790;28;20166;-83
2021/05/03 14:12:49;;;;;;;1999.90;999.90;;;16.70;1.00;;;;;;5057040;28;20167;-83
2021/05/03 14:15:21;;;;;;;1999.90;999.90;;;16.90;1.00;;;;;;5057982;28;20177;-83
2021/05/03 14:17:46;;;;;;;1999.90;999.90;;;17.10;1.00;;;;;;5057955;28;20255;-83
2021/05/03 14:20:12;;;;;;;1999.90;999.90;;;17.20;1.00;;;;;;5057512;28;20449;-82
2021/05/03 14:22:38;;;;;;;1999.90;999.90;;;17.20;1.00;;;;;;5058178;28;20167;-83
2021/05/03 14:25:04;;;;;;;1999.90;999.90;;;17.10;1.00;;;;;;5058521;28;20768;-82
2021/05/03 14:27:30;;;;;;;1999.90;999.90;;;16.80;1.00;;;;;;5058372;28;20265;-83
2021/05/03 14:29:59;;;;;;;1999.90;999.90;;;16.90;1.00;;;;;;5058552;28;20921;-83
2021/05/03 14:32:34;;;;;;;1999.90;999.90;;;16.80;1.00;;;;;;5058997;28;20208;-83
2021/05/03 14:35:08;;;;;;;1999.90;999.90;;;16.90;1.00;;;;;;5041359;28;20472;-83
2021/05/03 14:37:33;;;;;;;1999.90;999.90;;;16.60;1.00;;;;;;5041934;28;20441;-82
2021/05/03 14:39:59;;;;;;;1999.90;999.90;;;16.50;1.00;;;;;;5041260;28;20504;-83
2021/05/03 14:42:25;;;;;;;1999.90;999.90;;;16.50;1.00;;;;;;5058538;28;20672;-82
2021/05/03 14:44:51;;;;;;;1999.90;999.90;;;16.70;1.00;;;;;;5058977;28;20177;-84
2021/05/03 14:47:21;;;;;;;1999.90;999.90;;;17.00;1.00;;;;;;5058104;28;20186;-82
2021/05/03 14:52:23;;;;;;;1999.90;999.90;;;17.30;1.00;;;;;;5059133;28;20841;-83
2021/05/03 14:54:52;;;;;;;1999.90;999.90;;;17.30;1.00;;;;;;5058338;28;20176;-83
2021/05/03 14:57:19;;;;;;;1999.90;999.90;;;17.50;1.00;;;;;;5058285;28;20432;-82
2021/05/03 14:59:45;;;;;;;1999.90;999.90;;;17.40;1.00;;;;;;5058350;28;20478;-82
2021/05/03 15:02:12;;;;;;;1999.90;999.90;;;17.40;1.00;;;;;;5057906;28;20412;-82
2021/05/03 15:04:38;;;;;;;1999.90;999.90;;;17.50;1.00;;;;;;5040751;28;20832;-82
2021/05/03 15:07:11;;;;;;;1999.90;999.90;;;17.60;1.00;;;;;;5058029;28;20942;-83
2021/05/03 15:09:41;;;;;;;1999.90;999.90;;;17.60;1.00;;;;;;5058022;28;20749;-83
2021/05/03 15:12:32;;;;;;;1999.90;999.90;;;17.60;1.00;;;;;;5058545;28;20402;-83
2021/05/03 15:15:01;;;;;;;1999.90;999.90;;;17.50;1.00;;;;;;5057096;28;20494;-83
2021/05/03 15:17:46;;;;;;;1999.90;999.90;;;17.30;1.00;;;;;;5056815;28;20438;-83
2021/05/03 15:22:44;;;;;;;1999.90;999.90;;;16.90;1.00;;;;;;5057476;28;20401;-84
2021/05/03 15:25:11;;;;;;;1999.90;999.90;;;16.70;1.00;;;;;;5056740;28;20433;-83
2021/05/03 15:35:36;;;;;;;1999.90;999.90;;;16.60;1.00;;;;;;5055156;28;20189;-85
2021/05/03 15:38:03;;;;;;;1999.90;999.90;;;16.60;1.00;;;;;;5055229;28;20426;-85
2021/05/03 15:40:33;;;;;;;1999.90;999.90;;;16.60;1.00;;;;;;5055284;28;20527;-85
2021/05/03 15:43:03;;;;;;;1999.90;999.90;;;16.50;1.00;;;;;;5037638;28;20415;-86
2021/05/03 15:45:29;;;;;;;1999.90;999.90;;;16.00;1.00;;;;;;5037815;28;20415;-86
2021/05/03 15:47:55;;;;;;;1999.90;999.90;;;16.10;1.00;;;;;;5037884;28;20449;-86
2021/05/03 15:50:21;;;;;;;1999.90;999.90;;;16.20;1.00;;;;;;5053985;28;20408;-86
2021/05/03 15:52:47;;;;;;;1999.90;999.90;;;16.20;1.00;;;;;;5036147;28;20523;-86
2021/05/03 15:55:18;;;;;;;1999.90;999.90;;;16.30;1.00;;;;;;5036478;28;20622;-86
2021/05/03 15:57:47;;;;;;;1999.90;999.90;;;16.30;1.00;;;;;;5036213;28;20201;-86
2021/05/03 16:00:13;;;;;;;1999.90;999.90;;;16.20;1.00;;;;;;5035871;28;20456;-86
2021/05/03 16:02:53;;;;;;;1999.90;999.90;;;16.20;1.00;;;;;;5036182;28;20414;-85
2021/05/03 16:05:19;;;;;;;1999.90;999.90;;;16.10;1.00;;;;;;5053899;28;20388;-85
2021/05/03 16:07:45;;;;;;;1999.90;999.90;;;15.90;1.00;;;;;;5053981;28;20470;-85
2021/05/03 16:10:11;;;;;;;1999.90;999.90;;;15.60;1.00;;;;;;5035774;28;20573;-85
2021/05/03 16:12:36;;;;;;;1999.90;999.90;;;15.50;1.00;;;;;;5035842;28;20177;-86
2021/05/03 16:15:03;;;;;;;1999.90;999.90;;;15.50;1.00;;;;;;5035937;28;20779;-86
2021/05/03 16:17:39;;;;;;;1999.90;999.90;;;15.50;1.00;;;;;;5053733;28;20195;-86
2021/05/03 16:20:05;;;;;;;1999.90;999.90;;;15.50;1.00;;;;;;5054356;28;20423;-85
2021/05/03 16:22:32;;;;;;;1999.90;999.90;;;15.50;1.00;;;;;;5054357;28;20768;-85
2021/05/03 16:24:57;;;;;;;1999.90;999.90;;;15.60;1.00;;;;;;5053993;28;20399;-85